sensor_id;sensor_type;location;lat;lon;timestamp;P1;durP1;ratioP1;P2;durP2;ratioP2
75768;SDS011;64379;48.888;8.330;2023-11-19T00:00:39;0.85;;;0.55;;
75768;SDS011;64379;48.888;8.330;2023-11-19T00:03:04;0.95;;;0.40;;
75768;SDS011;64379;48.888;8.330;2023-11-19T00:05:31;0.60;;;0.20;;
75768;SDS011;64379;48.888;8.330;2023-11-19T00:07:56;0.80;;;0.57;;
75768;SDS011;64379;48.888;8.330;2023-11-19T00:10:22;1.88;;;0.55;;
75768;SDS011;64379;48.888;8.330;2023-11-19T00:12:48;4.07;;;0.55;;
75768;SDS011;64379;48.888;8.330;2023-11-19T00:15:17;1.05;;;0.25;;
75768;SDS011;64379;48.888;8.330;2023-11-19T00:17:47;2.72;;;0.55;;
75768;SDS011;64379;48.888;8.330;2023-11-19T00:22:39;0.60;;;0.38;;
75768;SDS011;64379;48.888;8.330;2023-11-19T00:25:06;0.40;;;0.40;;
75768;SDS011;64379;48.888;8.330;2023-11-19T00:27:32;0.50;;;0.20;;
75768;SDS011;64379;48.888;8.330;2023-11-19T00:29:58;0.73;;;0.30;;
75768;SDS011;64379;48.888;8.330;2023-11-19T00:32:24;0.30;;;0.30;;
75768;SDS011;64379;48.888;8.330;2023-11-19T00:34:50;0.50;;;0.38;;
75768;SDS011;64379;48.888;8.330;2023-11-19T00:37:16;0.40;;;0.20;;
75768;SDS011;64379;48.888;8.330;2023-11-19T00:39:42;0.88;;;0.40;;
75768;SDS011;64379;48.888;8.330;2023-11-19T00:42:08;1.50;;;0.52;;
75768;SDS011;64379;48.888;8.330;2023-11-19T00:44:38;8.63;;;0.50;;
75768;SDS011;64379;48.888;8.330;2023-11-19T00:47:04;0.65;;;0.47;;
75768;SDS011;64379;48.888;8.330;2023-11-19T00:49:30;1.63;;;0.17;;
75768;SDS011;64379;48.888;8.330;2023-11-19T00:51:58;1.23;;;0.35;;
75768;SDS011;64379;48.888;8.330;2023-11-19T00:54:24;0.60;;;0.32;;
75768;SDS011;64379;48.888;8.330;2023-11-19T00:56:51;0.75;;;0.60;;
75768;SDS011;64379;48.888;8.330;2023-11-19T00:59:17;0.55;;;0.35;;
75768;SDS011;64379;48.888;8.330;2023-11-19T01:01:43;0.20;;;0.20;;
75768;SDS011;64379;48.888;8.330;2023-11-19T01:04:09;0.43;;;0.35;;
75768;SDS011;64379;48.888;8.330;2023-11-19T01:06:35;0.30;;;0.30;;
75768;SDS011;64379;48.888;8.330;2023-11-19T01:09:00;0.20;;;0.20;;
75768;SDS011;64379;48.888;8.330;2023-11-19T01:11:27;1.15;;;0.55;;
75768;SDS011;64379;48.888;8.330;2023-11-19T01:13:53;0.65;;;0.22;;
75768;SDS011;64379;48.888;8.330;2023-11-19T01:16:19;0.28;;;0.25;;
75768;SDS011;64379;48.888;8.330;2023-11-19T01:18:48;0.47;;;0.30;;
75768;SDS011;64379;48.888;8.330;2023-11-19T01:23:40;0.13;;;0.10;;
75768;SDS011;64379;48.888;8.330;2023-11-19T01:26:08;0.55;;;0.40;;
75768;SDS011;64379;48.888;8.330;2023-11-19T01:28:38;1.63;;;0.32;;
75768;SDS011;64379;48.888;8.330;2023-11-19T01:31:11;0.20;;;0.20;;
75768;SDS011;64379;48.888;8.330;2023-11-19T01:33:39;0.63;;;0.30;;
75768;SDS011;64379;48.888;8.330;2023-11-19T01:36:06;0.57;;;0.35;;
75768;SDS011;64379;48.888;8.330;2023-11-19T01:38:33;1.10;;;0.50;;
75768;SDS011;64379;48.888;8.330;2023-11-19T01:40:59;0.20;;;0.20;;
75768;SDS011;64379;48.888;8.330;2023-11-19T01:43:34;0.13;;;0.13;;
75768;SDS011;64379;48.888;8.330;2023-11-19T01:46:01;1.40;;;0.30;;
75768;SDS011;64379;48.888;8.330;2023-11-19T01:48:31;0.50;;;0.30;;
75768;SDS011;64379;48.888;8.330;2023-11-19T01:50:57;0.52;;;0.28;;
75768;SDS011;64379;48.888;8.330;2023-11-19T01:53:24;1.02;;;0.52;;
75768;SDS011;64379;48.888;8.330;2023-11-19T01:55:50;0.25;;;0.20;;
75768;SDS011;64379;48.888;8.330;2023-11-19T01:58:17;0.85;;;0.55;;
75768;SDS011;64379;48.888;8.330;2023-11-19T02:00:44;0.45;;;0.30;;
75768;SDS011;64379;48.888;8.330;2023-11-19T02:03:10;0.75;;;0.43;;
75768;SDS011;64379;48.888;8.330;2023-11-19T02:05:36;1.42;;;0.40;;
75768;SDS011;64379;48.888;8.330;2023-11-19T02:08:03;0.88;;;0.40;;
75768;SDS011;64379;48.888;8.330;2023-11-19T02:10:29;0.82;;;0.52;;
75768;SDS011;64379;48.888;8.330;2023-11-19T02:12:56;1.55;;;0.80;;
75768;SDS011;64379;48.888;8.330;2023-11-19T02:15:22;1.08;;;0.28;;
75768;SDS011;64379;48.888;8.330;2023-11-19T02:17:49;0.70;;;0.50;;
75768;SDS011;64379;48.888;8.330;2023-11-19T02:20:15;2.00;;;0.60;;
75768;SDS011;64379;48.888;8.330;2023-11-19T02:22:42;0.93;;;0.55;;
75768;SDS011;64379;48.888;8.330;2023-11-19T02:25:08;0.82;;;0.50;;
75768;SDS011;64379;48.888;8.330;2023-11-19T02:30:20;1.40;;;0.40;;
75768;SDS011;64379;48.888;8.330;2023-11-19T02:32:51;2.13;;;0.77;;
75768;SDS011;64379;48.888;8.330;2023-11-19T02:35:18;2.55;;;0.57;;
75768;SDS011;64379;48.888;8.330;2023-11-19T02:37:43;1.50;;;0.52;;
75768;SDS011;64379;48.888;8.330;2023-11-19T02:40:10;0.88;;;0.50;;
75768;SDS011;64379;48.888;8.330;2023-11-19T02:42:36;1.83;;;0.60;;
75768;SDS011;64379;48.888;8.330;2023-11-19T02:45:01;1.50;;;0.70;;
75768;SDS011;64379;48.888;8.330;2023-11-19T02:47:31;1.90;;;0.75;;
75768;SDS011;64379;48.888;8.330;2023-11-19T02:49:57;1.55;;;0.60;;
75768;SDS011;64379;48.888;8.330;2023-11-19T02:52:23;0.77;;;0.50;;
75768;SDS011;64379;48.888;8.330;2023-11-19T02:54:49;1.42;;;0.90;;
75768;SDS011;64379;48.888;8.330;2023-11-19T02:57:15;2.20;;;0.60;;
75768;SDS011;64379;48.888;8.330;2023-11-19T02:59:44;1.42;;;0.63;;
75768;SDS011;64379;48.888;8.330;2023-11-19T03:02:09;1.67;;;0.80;;
75768;SDS011;64379;48.888;8.330;2023-11-19T03:04:40;3.15;;;0.80;;
75768;SDS011;64379;48.888;8.330;2023-11-19T03:07:08;1.30;;;0.60;;
75768;SDS011;64379;48.888;8.330;2023-11-19T03:09:33;1.23;;;0.63;;
75768;SDS011;64379;48.888;8.330;2023-11-19T03:12:05;1.13;;;0.70;;
75768;SDS011;64379;48.888;8.330;2023-11-19T03:14:33;1.27;;;0.60;;
75768;SDS011;64379;48.888;8.330;2023-11-19T03:16:59;1.42;;;0.60;;
75768;SDS011;64379;48.888;8.330;2023-11-19T03:19:25;0.90;;;0.50;;
75768;SDS011;64379;48.888;8.330;2023-11-19T03:21:52;0.68;;;0.38;;
75768;SDS011;64379;48.888;8.330;2023-11-19T03:24:19;1.52;;;0.57;;
75768;SDS011;64379;48.888;8.330;2023-11-19T03:26:48;0.65;;;0.40;;
75768;SDS011;64379;48.888;8.330;2023-11-19T03:29:15;1.90;;;0.47;;
75768;SDS011;64379;48.888;8.330;2023-11-19T03:31:44;0.50;;;0.30;;
75768;SDS011;64379;48.888;8.330;2023-11-19T03:34:09;0.30;;;0.30;;
75768;SDS011;64379;48.888;8.330;2023-11-19T03:36:36;0.47;;;0.30;;
75768;SDS011;64379;48.888;8.330;2023-11-19T03:39:02;0.40;;;0.38;;
75768;SDS011;64379;48.888;8.330;2023-11-19T03:41:28;2.53;;;0.50;;
75768;SDS011;64379;48.888;8.330;2023-11-19T03:43:53;1.23;;;0.55;;
75768;SDS011;64379;48.888;8.330;2023-11-19T03:46:19;0.30;;;0.30;;
75768;SDS011;64379;48.888;8.330;2023-11-19T03:48:49;0.57;;;0.40;;
75768;SDS011;64379;48.888;8.330;2023-11-19T03:51:15;0.57;;;0.57;;
75768;SDS011;64379;48.888;8.330;2023-11-19T03:53:42;0.52;;;0.47;;
75768;SDS011;64379;48.888;8.330;2023-11-19T03:56:08;0.28;;;0.28;;
75768;SDS011;64379;48.888;8.330;2023-11-19T03:58:38;1.38;;;0.30;;
75768;SDS011;64379;48.888;8.330;2023-11-19T04:01:13;0.30;;;0.30;;
75768;SDS011;64379;48.888;8.330;2023-11-19T04:03:39;1.10;;;0.63;;
75768;SDS011;64379;48.888;8.330;2023-11-19T04:06:04;0.88;;;0.43;;
75768;SDS011;64379;48.888;8.330;2023-11-19T04:08:30;1.65;;;0.55;;
75768;SDS011;64379;48.888;8.330;2023-11-19T04:10:56;1.20;;;0.52;;
75768;SDS011;64379;48.888;8.330;2023-11-19T04:13:21;0.40;;;0.40;;
75768;SDS011;64379;48.888;8.330;2023-11-19T04:15:49;2.30;;;0.28;;
75768;SDS011;64379;48.888;8.330;2023-11-19T04:18:15;0.43;;;0.30;;
75768;SDS011;64379;48.888;8.330;2023-11-19T04:20:41;1.05;;;0.30;;
75768;SDS011;64379;48.888;8.330;2023-11-19T04:23:08;0.50;;;0.30;;
75768;SDS011;64379;48.888;8.330;2023-11-19T04:25:34;0.80;;;0.38;;
75768;SDS011;64379;48.888;8.330;2023-11-19T04:28:00;0.55;;;0.45;;
75768;SDS011;64379;48.888;8.330;2023-11-19T04:30:27;0.60;;;0.40;;
75768;SDS011;64379;48.888;8.330;2023-11-19T04:32:53;0.30;;;0.25;;
75768;SDS011;64379;48.888;8.330;2023-11-19T04:35:18;0.90;;;0.30;;
75768;SDS011;64379;48.888;8.330;2023-11-19T04:37:44;0.38;;;0.20;;
75768;SDS011;64379;48.888;8.330;2023-11-19T04:40:10;0.52;;;0.20;;
75768;SDS011;64379;48.888;8.330;2023-11-19T04:42:37;0.50;;;0.30;;
75768;SDS011;64379;48.888;8.330;2023-11-19T04:45:05;0.43;;;0.28;;
75768;SDS011;64379;48.888;8.330;2023-11-19T04:47:32;0.20;;;0.20;;
75768;SDS011;64379;48.888;8.330;2023-11-19T04:50:00;0.25;;;0.20;;
75768;SDS011;64379;48.888;8.330;2023-11-19T04:52:26;0.63;;;0.20;;
75768;SDS011;64379;48.888;8.330;2023-11-19T04:54:52;0.40;;;0.20;;
75768;SDS011;64379;48.888;8.330;2023-11-19T04:57:18;0.55;;;0.20;;
75768;SDS011;64379;48.888;8.330;2023-11-19T04:59:43;0.40;;;0.40;;
75768;SDS011;64379;48.888;8.330;2023-11-19T05:02:09;0.28;;;0.28;;
75768;SDS011;64379;48.888;8.330;2023-11-19T05:04:34;0.95;;;0.20;;
75768;SDS011;64379;48.888;8.330;2023-11-19T05:07:00;0.30;;;0.20;;
75768;SDS011;64379;48.888;8.330;2023-11-19T05:09:26;2.03;;;0.20;;
75768;SDS011;64379;48.888;8.330;2023-11-19T05:11:52;0.20;;;0.20;;
75768;SDS011;64379;48.888;8.330;2023-11-19T05:14:17;0.73;;;0.10;;
75768;SDS011;64379;48.888;8.330;2023-11-19T05:16:46;0.20;;;0.20;;
75768;SDS011;64379;48.888;8.330;2023-11-19T05:19:12;0.35;;;0.22;;
75768;SDS011;64379;48.888;8.330;2023-11-19T05:21:41;0.65;;;0.20;;
75768;SDS011;64379;48.888;8.330;2023-11-19T05:24:07;0.50;;;0.20;;
75768;SDS011;64379;48.888;8.330;2023-11-19T05:26:34;1.75;;;0.40;;
75768;SDS011;64379;48.888;8.330;2023-11-19T05:28:59;0.73;;;0.20;;
75768;SDS011;64379;48.888;8.330;2023-11-19T05:31:25;0.10;;;0.00;;
75768;SDS011;64379;48.888;8.330;2023-11-19T05:33:50;0.32;;;0.20;;
75768;SDS011;64379;48.888;8.330;2023-11-19T05:36:16;0.00;;;0.00;;
75768;SDS011;64379;48.888;8.330;2023-11-19T05:38:42;0.57;;;0.20;;
75768;SDS011;64379;48.888;8.330;2023-11-19T05:41:07;0.57;;;0.10;;
75768;SDS011;64379;48.888;8.330;2023-11-19T05:43:33;0.40;;;0.15;;
75768;SDS011;64379;48.888;8.330;2023-11-19T05:45:59;0.25;;;0.25;;
75768;SDS011;64379;48.888;8.330;2023-11-19T05:48:26;0.85;;;0.30;;
75768;SDS011;64379;48.888;8.330;2023-11-19T05:50:52;2.10;;;0.17;;
75768;SDS011;64379;48.888;8.330;2023-11-19T05:53:18;0.80;;;0.20;;
75768;SDS011;64379;48.888;8.330;2023-11-19T05:55:44;0.03;;;0.03;;
75768;SDS011;64379;48.888;8.330;2023-11-19T05:58:14;0.10;;;0.10;;
75768;SDS011;64379;48.888;8.330;2023-11-19T06:00:40;0.22;;;0.13;;
75768;SDS011;64379;48.888;8.330;2023-11-19T06:03:09;0.68;;;0.30;;
75768;SDS011;64379;48.888;8.330;2023-11-19T06:05:34;0.10;;;0.10;;
75768;SDS011;64379;48.888;8.330;2023-11-19T06:08:00;0.60;;;0.22;;
75768;SDS011;64379;48.888;8.330;2023-11-19T06:10:26;0.20;;;0.03;;
75768;SDS011;64379;48.888;8.330;2023-11-19T06:12:56;0.68;;;0.20;;
75768;SDS011;64379;48.888;8.330;2023-11-19T06:15:24;0.32;;;0.20;;
75768;SDS011;64379;48.888;8.330;2023-11-19T06:17:53;0.20;;;0.20;;
75768;SDS011;64379;48.888;8.330;2023-11-19T06:20:20;2.00;;;0.20;;
75768;SDS011;64379;48.888;8.330;2023-11-19T06:22:46;0.10;;;0.10;;
75768;SDS011;64379;48.888;8.330;2023-11-19T06:25:11;0.30;;;0.10;;
75768;SDS011;64379;48.888;8.330;2023-11-19T06:27:39;0.65;;;0.15;;
75768;SDS011;64379;48.888;8.330;2023-11-19T06:30:06;0.40;;;0.10;;
75768;SDS011;64379;48.888;8.330;2023-11-19T06:35:24;0.77;;;0.22;;
75768;SDS011;64379;48.888;8.330;2023-11-19T06:37:50;0.20;;;0.20;;
75768;SDS011;64379;48.888;8.330;2023-11-19T06:40:16;0.10;;;0.10;;
75768;SDS011;64379;48.888;8.330;2023-11-19T06:42:41;0.25;;;0.13;;
75768;SDS011;64379;48.888;8.330;2023-11-19T06:45:07;0.38;;;0.20;;
75768;SDS011;64379;48.888;8.330;2023-11-19T06:47:34;0.08;;;0.08;;
75768;SDS011;64379;48.888;8.330;2023-11-19T06:49:59;0.40;;;0.25;;
75768;SDS011;64379;48.888;8.330;2023-11-19T06:52:25;0.10;;;0.00;;
75768;SDS011;64379;48.888;8.330;2023-11-19T06:54:51;0.20;;;0.10;;
75768;SDS011;64379;48.888;8.330;2023-11-19T06:57:16;0.73;;;0.28;;
75768;SDS011;64379;48.888;8.330;2023-11-19T06:59:42;0.57;;;0.20;;
75768;SDS011;64379;48.888;8.330;2023-11-19T07:02:08;0.20;;;0.20;;
75768;SDS011;64379;48.888;8.330;2023-11-19T07:04:34;0.25;;;0.10;;
75768;SDS011;64379;48.888;8.330;2023-11-19T07:06:59;0.00;;;0.00;;
75768;SDS011;64379;48.888;8.330;2023-11-19T07:09:25;0.20;;;0.20;;
75768;SDS011;64379;48.888;8.330;2023-11-19T07:11:51;0.10;;;0.10;;
75768;SDS011;64379;48.888;8.330;2023-11-19T07:14:17;0.60;;;0.10;;
75768;SDS011;64379;48.888;8.330;2023-11-19T07:16:43;1.10;;;0.10;;
75768;SDS011;64379;48.888;8.330;2023-11-19T07:19:10;0.30;;;0.20;;
75768;SDS011;64379;48.888;8.330;2023-11-19T07:21:36;0.80;;;0.00;;
75768;SDS011;64379;48.888;8.330;2023-11-19T07:24:09;0.22;;;0.08;;
75768;SDS011;64379;48.888;8.330;2023-11-19T07:26:35;0.35;;;0.30;;
75768;SDS011;64379;48.888;8.330;2023-11-19T07:29:02;1.05;;;0.43;;
75768;SDS011;64379;48.888;8.330;2023-11-19T07:31:28;0.82;;;0.55;;
75768;SDS011;64379;48.888;8.330;2023-11-19T07:33:53;0.82;;;0.35;;
75768;SDS011;64379;48.888;8.330;2023-11-19T07:36:19;1.75;;;0.50;;
75768;SDS011;64379;48.888;8.330;2023-11-19T07:38:45;0.35;;;0.22;;
75768;SDS011;64379;48.888;8.330;2023-11-19T07:41:11;1.00;;;0.35;;
75768;SDS011;64379;48.888;8.330;2023-11-19T07:43:43;0.80;;;0.30;;
75768;SDS011;64379;48.888;8.330;2023-11-19T07:46:13;0.65;;;0.28;;
75768;SDS011;64379;48.888;8.330;2023-11-19T07:48:41;0.95;;;0.40;;
75768;SDS011;64379;48.888;8.330;2023-11-19T07:53:33;0.75;;;0.30;;
75768;SDS011;64379;48.888;8.330;2023-11-19T07:56:01;0.47;;;0.32;;
75768;SDS011;64379;48.888;8.330;2023-11-19T07:58:27;0.40;;;0.28;;
75768;SDS011;64379;48.888;8.330;2023-11-19T08:00:52;0.60;;;0.28;;
75768;SDS011;64379;48.888;8.330;2023-11-19T08:03:19;1.30;;;0.30;;
75768;SDS011;64379;48.888;8.330;2023-11-19T08:05:46;0.65;;;0.25;;
75768;SDS011;64379;48.888;8.330;2023-11-19T08:08:12;1.92;;;0.60;;
75768;SDS011;64379;48.888;8.330;2023-11-19T08:10:38;2.15;;;0.70;;
75768;SDS011;64379;48.888;8.330;2023-11-19T08:13:05;2.03;;;0.70;;
75768;SDS011;64379;48.888;8.330;2023-11-19T08:15:30;0.70;;;0.40;;
75768;SDS011;64379;48.888;8.330;2023-11-19T08:17:56;0.20;;;0.20;;
75768;SDS011;64379;48.888;8.330;2023-11-19T08:20:22;1.30;;;0.38;;
75768;SDS011;64379;48.888;8.330;2023-11-19T08:22:48;0.90;;;0.50;;
75768;SDS011;64379;48.888;8.330;2023-11-19T08:25:14;0.70;;;0.30;;
75768;SDS011;64379;48.888;8.330;2023-11-19T08:27:40;1.55;;;0.63;;
75768;SDS011;64379;48.888;8.330;2023-11-19T08:30:05;5.95;;;1.60;;
75768;SDS011;64379;48.888;8.330;2023-11-19T08:32:32;1.08;;;0.52;;
75768;SDS011;64379;48.888;8.330;2023-11-19T08:34:57;1.73;;;0.65;;
75768;SDS011;64379;48.888;8.330;2023-11-19T08:37:23;0.88;;;0.40;;
75768;SDS011;64379;48.888;8.330;2023-11-19T08:39:49;1.17;;;0.60;;
75768;SDS011;64379;48.888;8.330;2023-11-19T08:42:15;1.48;;;0.73;;
75768;SDS011;64379;48.888;8.330;2023-11-19T08:44:42;0.45;;;0.40;;
75768;SDS011;64379;48.888;8.330;2023-11-19T08:47:12;1.10;;;0.60;;
75768;SDS011;64379;48.888;8.330;2023-11-19T08:49:39;1.67;;;0.43;;
75768;SDS011;64379;48.888;8.330;2023-11-19T08:52:05;0.40;;;0.30;;
75768;SDS011;64379;48.888;8.330;2023-11-19T08:54:32;1.75;;;0.40;;
75768;SDS011;64379;48.888;8.330;2023-11-19T08:57:01;2.03;;;0.57;;
75768;SDS011;64379;48.888;8.330;2023-11-19T08:59:28;2.90;;;0.60;;
75768;SDS011;64379;48.888;8.330;2023-11-19T09:01:54;0.98;;;0.40;;
75768;SDS011;64379;48.888;8.330;2023-11-19T09:04:19;0.90;;;0.52;;
75768;SDS011;64379;48.888;8.330;2023-11-19T09:06:47;1.77;;;0.45;;
75768;SDS011;64379;48.888;8.330;2023-11-19T09:09:13;1.52;;;0.40;;
75768;SDS011;64379;48.888;8.330;2023-11-19T09:11:39;2.13;;;0.50;;
75768;SDS011;64379;48.888;8.330;2023-11-19T09:14:04;0.47;;;0.40;;
75768;SDS011;64379;48.888;8.330;2023-11-19T09:16:30;1.10;;;0.40;;
75768;SDS011;64379;48.888;8.330;2023-11-19T09:18:57;1.30;;;0.50;;
75768;SDS011;64379;48.888;8.330;2023-11-19T09:21:24;1.38;;;0.52;;
75768;SDS011;64379;48.888;8.330;2023-11-19T09:23:50;1.25;;;0.60;;
75768;SDS011;64379;48.888;8.330;2023-11-19T09:26:16;0.90;;;0.55;;
75768;SDS011;64379;48.888;8.330;2023-11-19T09:28:41;1.17;;;0.47;;
75768;SDS011;64379;48.888;8.330;2023-11-19T09:31:16;0.75;;;0.40;;
75768;SDS011;64379;48.888;8.330;2023-11-19T09:33:42;0.90;;;0.40;;
75768;SDS011;64379;48.888;8.330;2023-11-19T09:36:13;1.42;;;0.60;;
75768;SDS011;64379;48.888;8.330;2023-11-19T09:38:40;2.10;;;0.63;;
75768;SDS011;64379;48.888;8.330;2023-11-19T09:41:09;1.42;;;0.52;;
75768;SDS011;64379;48.888;8.330;2023-11-19T09:43:38;1.83;;;0.60;;
75768;SDS011;64379;48.888;8.330;2023-11-19T09:46:09;0.80;;;0.30;;
75768;SDS011;64379;48.888;8.330;2023-11-19T09:48:37;1.15;;;0.47;;
75768;SDS011;64379;48.888;8.330;2023-11-19T09:51:06;0.70;;;0.30;;
75768;SDS011;64379;48.888;8.330;2023-11-19T09:53:33;0.52;;;0.35;;
75768;SDS011;64379;48.888;8.330;2023-11-19T09:56:00;0.45;;;0.40;;
75768;SDS011;64379;48.888;8.330;2023-11-19T09:58:30;0.75;;;0.43;;
75768;SDS011;64379;48.888;8.330;2023-11-19T10:00:56;1.38;;;0.70;;
75768;SDS011;64379;48.888;8.330;2023-11-19T10:03:34;1.65;;;0.60;;
75768;SDS011;64379;48.888;8.330;2023-11-19T10:06:03;1.02;;;0.40;;
75768;SDS011;64379;48.888;8.330;2023-11-19T10:08:31;0.30;;;0.30;;
75768;SDS011;64379;48.888;8.330;2023-11-19T10:10:57;0.82;;;0.43;;
75768;SDS011;64379;48.888;8.330;2023-11-19T10:13:30;0.63;;;0.40;;
75768;SDS011;64379;48.888;8.330;2023-11-19T10:15:56;1.00;;;0.47;;
75768;SDS011;64379;48.888;8.330;2023-11-19T10:18:25;1.33;;;0.52;;
75768;SDS011;64379;48.888;8.330;2023-11-19T10:20:52;1.00;;;0.40;;
75768;SDS011;64379;48.888;8.330;2023-11-19T10:23:18;1.08;;;0.55;;
75768;SDS011;64379;48.888;8.330;2023-11-19T10:25:43;0.38;;;0.30;;
75768;SDS011;64379;48.888;8.330;2023-11-19T10:28:09;1.95;;;0.73;;
75768;SDS011;64379;48.888;8.330;2023-11-19T10:30:34;1.98;;;0.45;;
75768;SDS011;64379;48.888;8.330;2023-11-19T10:33:10;1.30;;;0.40;;
75768;SDS011;64379;48.888;8.330;2023-11-19T10:35:51;0.70;;;0.38;;
75768;SDS011;64379;48.888;8.330;2023-11-19T10:38:18;0.75;;;0.40;;
75768;SDS011;64379;48.888;8.330;2023-11-19T10:40:44;0.88;;;0.40;;
75768;SDS011;64379;48.888;8.330;2023-11-19T10:43:10;3.53;;;0.60;;
75768;SDS011;64379;48.888;8.330;2023-11-19T10:45:36;1.08;;;0.52;;
75768;SDS011;64379;48.888;8.330;2023-11-19T10:48:04;2.70;;;0.60;;
75768;SDS011;64379;48.888;8.330;2023-11-19T10:50:33;1.92;;;0.50;;
75768;SDS011;64379;48.888;8.330;2023-11-19T10:53:01;2.03;;;0.55;;
75768;SDS011;64379;48.888;8.330;2023-11-19T10:55:28;1.20;;;0.52;;
75768;SDS011;64379;48.888;8.330;2023-11-19T10:57:58;1.33;;;0.50;;
75768;SDS011;64379;48.888;8.330;2023-11-19T11:00:26;1.25;;;0.63;;
75768;SDS011;64379;48.888;8.330;2023-11-19T11:02:59;0.88;;;0.63;;
75768;SDS011;64379;48.888;8.330;2023-11-19T11:05:27;2.13;;;0.57;;
75768;SDS011;64379;48.888;8.330;2023-11-19T11:07:57;0.68;;;0.40;;
75768;SDS011;64379;48.888;8.330;2023-11-19T11:10:25;1.85;;;0.70;;
75768;SDS011;64379;48.888;8.330;2023-11-19T11:12:51;1.02;;;0.52;;
75768;SDS011;64379;48.888;8.330;2023-11-19T11:15:24;2.13;;;0.40;;
75768;SDS011;64379;48.888;8.330;2023-11-19T11:17:56;2.63;;;0.65;;
75768;SDS011;64379;48.888;8.330;2023-11-19T11:20:24;0.43;;;0.38;;
75768;SDS011;64379;48.888;8.330;2023-11-19T11:22:57;0.93;;;0.60;;
75768;SDS011;64379;48.888;8.330;2023-11-19T11:28:13;1.00;;;0.50;;
75768;SDS011;64379;48.888;8.330;2023-11-19T11:30:49;3.22;;;0.90;;
75768;SDS011;64379;48.888;8.330;2023-11-19T11:36:29;2.78;;;0.60;;
75768;SDS011;64379;48.888;8.330;2023-11-19T11:38:56;2.63;;;0.60;;
75768;SDS011;64379;48.888;8.330;2023-11-19T11:41:25;1.33;;;0.60;;
75768;SDS011;64379;48.888;8.330;2023-11-19T11:43:52;1.42;;;0.80;;
75768;SDS011;64379;48.888;8.330;2023-11-19T11:49:04;3.70;;;0.95;;
75768;SDS011;64379;48.888;8.330;2023-11-19T11:54:08;2.90;;;1.20;;
75768;SDS011;64379;48.888;8.330;2023-11-19T11:56:38;1.65;;;0.80;;
75768;SDS011;64379;48.888;8.330;2023-11-19T11:59:23;3.60;;;1.38;;
75768;SDS011;64379;48.888;8.330;2023-11-19T12:01:58;3.35;;;1.13;;
75768;SDS011;64379;48.888;8.330;2023-11-19T12:04:26;0.90;;;0.50;;
75768;SDS011;64379;48.888;8.330;2023-11-19T12:09:40;2.30;;;0.90;;
75768;SDS011;64379;48.888;8.330;2023-11-19T12:12:07;2.78;;;0.68;;
75768;SDS011;64379;48.888;8.330;2023-11-19T12:15:10;3.75;;;0.98;;
75768;SDS011;64379;48.888;8.330;2023-11-19T12:17:36;2.53;;;0.80;;
75768;SDS011;64379;48.888;8.330;2023-11-19T12:20:06;4.32;;;0.57;;
75768;SDS011;64379;48.888;8.330;2023-11-19T12:22:39;1.95;;;0.60;;
75768;SDS011;64379;48.888;8.330;2023-11-19T12:25:05;1.58;;;0.70;;
75768;SDS011;64379;48.888;8.330;2023-11-19T12:27:33;1.40;;;0.57;;
75768;SDS011;64379;48.888;8.330;2023-11-19T12:30:02;4.70;;;0.70;;
75768;SDS011;64379;48.888;8.330;2023-11-19T12:32:39;1.40;;;0.47;;
75768;SDS011;64379;48.888;8.330;2023-11-19T12:35:06;0.98;;;0.50;;
75768;SDS011;64379;48.888;8.330;2023-11-19T12:37:39;2.63;;;0.80;;
75768;SDS011;64379;48.888;8.330;2023-11-19T12:40:18;1.65;;;0.60;;
75768;SDS011;64379;48.888;8.330;2023-11-19T12:42:47;2.08;;;0.70;;
75768;SDS011;64379;48.888;8.330;2023-11-19T12:45:14;2.58;;;0.77;;
75768;SDS011;64379;48.888;8.330;2023-11-19T12:47:41;4.65;;;0.80;;
75768;SDS011;64379;48.888;8.330;2023-11-19T12:50:08;0.77;;;0.50;;
75768;SDS011;64379;48.888;8.330;2023-11-19T12:52:38;1.38;;;0.55;;
75768;SDS011;64379;48.888;8.330;2023-11-19T12:55:04;0.75;;;0.50;;
75768;SDS011;64379;48.888;8.330;2023-11-19T12:57:48;1.55;;;0.70;;
75768;SDS011;64379;48.888;8.330;2023-11-19T13:00:23;1.25;;;0.50;;
75768;SDS011;64379;48.888;8.330;2023-11-19T13:02:53;1.33;;;0.70;;
75768;SDS011;64379;48.888;8.330;2023-11-19T13:05:30;1.67;;;0.50;;
75768;SDS011;64379;48.888;8.330;2023-11-19T13:10:26;1.88;;;0.70;;
75768;SDS011;64379;48.888;8.330;2023-11-19T13:13:03;3.63;;;0.73;;
75768;SDS011;64379;48.888;8.330;2023-11-19T13:15:33;0.80;;;0.50;;
75768;SDS011;64379;48.888;8.330;2023-11-19T13:18:00;0.73;;;0.35;;
75768;SDS011;64379;48.888;8.330;2023-11-19T13:20:26;2.28;;;0.60;;
75768;SDS011;64379;48.888;8.330;2023-11-19T13:25:32;1.25;;;0.80;;
75768;SDS011;64379;48.888;8.330;2023-11-19T13:27:58;1.35;;;0.57;;
75768;SDS011;64379;48.888;8.330;2023-11-19T13:30:24;3.10;;;0.70;;
75768;SDS011;64379;48.888;8.330;2023-11-19T13:32:50;2.30;;;0.63;;
75768;SDS011;64379;48.888;8.330;2023-11-19T13:35:16;1.75;;;0.73;;
75768;SDS011;64379;48.888;8.330;2023-11-19T13:37:43;2.47;;;0.82;;
75768;SDS011;64379;48.888;8.330;2023-11-19T13:40:09;3.70;;;0.50;;
75768;SDS011;64379;48.888;8.330;2023-11-19T13:42:38;1.95;;;0.73;;
75768;SDS011;64379;48.888;8.330;2023-11-19T13:45:10;2.30;;;0.73;;
75768;SDS011;64379;48.888;8.330;2023-11-19T13:47:41;1.20;;;0.60;;
75768;SDS011;64379;48.888;8.330;2023-11-19T13:50:12;3.90;;;0.57;;
75768;SDS011;64379;48.888;8.330;2023-11-19T13:52:39;1.98;;;0.65;;
75768;SDS011;64379;48.888;8.330;2023-11-19T13:55:06;2.15;;;0.73;;
75768;SDS011;64379;48.888;8.330;2023-11-19T13:57:34;1.95;;;0.80;;
75768;SDS011;64379;48.888;8.330;2023-11-19T14:00:06;1.98;;;0.98;;
75768;SDS011;64379;48.888;8.330;2023-11-19T14:02:44;2.03;;;0.57;;
75768;SDS011;64379;48.888;8.330;2023-11-19T14:05:11;2.30;;;0.73;;
75768;SDS011;64379;48.888;8.330;2023-11-19T14:07:40;2.20;;;0.68;;
75768;SDS011;64379;48.888;8.330;2023-11-19T14:10:06;2.90;;;0.88;;
75768;SDS011;64379;48.888;8.330;2023-11-19T14:12:34;2.45;;;0.75;;
75768;SDS011;64379;48.888;8.330;2023-11-19T14:15:00;3.10;;;1.00;;
75768;SDS011;64379;48.888;8.330;2023-11-19T14:17:26;1.67;;;0.70;;
75768;SDS011;64379;48.888;8.330;2023-11-19T14:19:52;0.65;;;0.43;;
75768;SDS011;64379;48.888;8.330;2023-11-19T14:22:17;0.60;;;0.40;;
75768;SDS011;64379;48.888;8.330;2023-11-19T14:24:43;1.70;;;0.73;;
75768;SDS011;64379;48.888;8.330;2023-11-19T14:27:11;1.63;;;0.50;;
75768;SDS011;64379;48.888;8.330;2023-11-19T14:32:05;2.85;;;0.90;;
75768;SDS011;64379;48.888;8.330;2023-11-19T14:34:31;1.83;;;0.60;;
75768;SDS011;64379;48.888;8.330;2023-11-19T14:36:57;2.70;;;0.70;;
75768;SDS011;64379;48.888;8.330;2023-11-19T14:39:25;2.45;;;0.68;;
75768;SDS011;64379;48.888;8.330;2023-11-19T14:41:51;3.38;;;1.05;;
75768;SDS011;64379;48.888;8.330;2023-11-19T14:44:17;2.70;;;0.82;;
75768;SDS011;64379;48.888;8.330;2023-11-19T14:46:44;2.67;;;0.93;;
75768;SDS011;64379;48.888;8.330;2023-11-19T14:49:10;2.63;;;0.70;;
75768;SDS011;64379;48.888;8.330;2023-11-19T14:51:39;1.48;;;0.70;;
75768;SDS011;64379;48.888;8.330;2023-11-19T14:54:05;1.30;;;0.60;;
75768;SDS011;64379;48.888;8.330;2023-11-19T14:56:31;0.65;;;0.30;;
75768;SDS011;64379;48.888;8.330;2023-11-19T14:58:56;5.00;;;0.90;;
75768;SDS011;64379;48.888;8.330;2023-11-19T15:01:22;1.75;;;0.60;;
75768;SDS011;64379;48.888;8.330;2023-11-19T15:03:47;5.63;;;0.88;;
75768;SDS011;64379;48.888;8.330;2023-11-19T15:06:13;2.92;;;0.68;;
75768;SDS011;64379;48.888;8.330;2023-11-19T15:08:39;3.42;;;0.50;;
75768;SDS011;64379;48.888;8.330;2023-11-19T15:11:09;1.55;;;0.55;;
75768;SDS011;64379;48.888;8.330;2023-11-19T15:13:36;2.15;;;0.60;;
75768;SDS011;64379;48.888;8.330;2023-11-19T15:16:03;1.75;;;0.80;;
75768;SDS011;64379;48.888;8.330;2023-11-19T15:18:30;2.55;;;0.90;;
75768;SDS011;64379;48.888;8.330;2023-11-19T15:20:56;2.45;;;0.90;;
75768;SDS011;64379;48.888;8.330;2023-11-19T15:23:22;3.53;;;0.40;;